createdAt,value
2019-03-16T00:01:09.063Z,9.90
2019-03-16T00:03:37.630Z,10.00
2019-03-16T00:06:06.233Z,9.90
2019-03-16T00:08:34.799Z,10.00
2019-03-16T00:11:03.358Z,9.90
2019-03-16T00:13:31.951Z,9.90
2019-03-16T00:16:00.758Z,9.90
2019-03-16T00:18:29.662Z,9.90
2019-03-16T00:20:58.210Z,9.90
2019-03-16T00:23:27.140Z,9.90
2019-03-16T00:25:55.735Z,9.90
2019-03-16T00:28:24.290Z,9.90
2019-03-16T00:30:52.867Z,9.90
2019-03-16T00:33:21.436Z,9.90
2019-03-16T00:35:50.416Z,9.90
2019-03-16T00:38:18.992Z,9.90
2019-03-16T00:40:47.551Z,9.90
2019-03-16T00:43:16.238Z,9.90
2019-03-16T00:46:04.102Z,9.90
2019-03-16T00:48:32.679Z,9.90
2019-03-16T00:51:01.235Z,9.90
2019-03-16T00:53:29.794Z,9.90
2019-03-16T00:55:58.385Z,9.90
2019-03-16T00:58:26.934Z,9.90
2019-03-16T01:00:55.562Z,9.90
2019-03-16T01:03:24.225Z,9.90
2019-03-16T01:05:52.778Z,9.80
2019-03-16T01:08:21.406Z,9.80
2019-03-16T01:10:49.978Z,9.80
2019-03-16T01:13:18.555Z,9.80
2019-03-16T01:15:47.117Z,9.80
2019-03-16T01:18:15.674Z,9.80
2019-03-16T01:20:44.246Z,9.80
2019-03-16T01:23:12.802Z,9.80
2019-03-16T01:25:42.322Z,9.80
2019-03-16T01:28:10.887Z,9.80
2019-03-16T01:30:39.442Z,9.80
2019-03-16T01:33:08.026Z,9.80
2019-03-16T01:35:36.574Z,9.80
2019-03-16T01:38:05.730Z,9.80
2019-03-16T01:40:34.380Z,9.80
2019-03-16T01:43:03.283Z,9.80
2019-03-16T01:45:31.861Z,9.80
2019-03-16T01:48:00.462Z,9.80
2019-03-16T01:50:29.040Z,9.70
2019-03-16T01:52:57.597Z,9.80
2019-03-16T01:55:26.154Z,9.80
2019-03-16T01:57:54.738Z,9.70
2019-03-16T02:00:23.290Z,9.70
2019-03-16T02:02:55.443Z,9.70
2019-03-16T02:05:22.446Z,9.70
2019-03-16T02:07:51.002Z,9.70
2019-03-16T02:10:19.574Z,9.70
2019-03-16T02:12:48.134Z,9.70
2019-03-16T02:15:16.756Z,9.70
2019-03-16T02:17:45.330Z,9.70
2019-03-16T02:20:13.884Z,9.70
2019-03-16T02:22:42.458Z,9.70
2019-03-16T02:25:11.018Z,9.70
2019-03-16T02:27:39.614Z,9.70
2019-03-16T02:30:08.449Z,9.70
2019-03-16T02:32:37.004Z,9.70
2019-03-16T02:35:06.391Z,9.60
2019-03-16T02:37:34.948Z,9.70
2019-03-16T02:40:03.554Z,9.70
2019-03-16T02:42:32.114Z,9.70
2019-03-16T02:45:00.935Z,9.60
2019-03-16T02:47:29.520Z,9.70
2019-03-16T02:49:58.066Z,9.70
2019-03-16T02:52:26.654Z,9.70
2019-03-16T02:54:55.479Z,9.70
2019-03-16T02:57:24.355Z,9.60
2019-03-16T02:59:53.562Z,9.60
2019-03-16T03:02:22.114Z,9.60
2019-03-16T03:04:50.695Z,9.60
2019-03-16T03:07:19.252Z,9.60
2019-03-16T03:09:47.802Z,9.60
2019-03-16T03:12:16.686Z,9.60
2019-03-16T03:15:04.711Z,9.60
2019-03-16T03:17:33.297Z,9.60
2019-03-16T03:20:01.919Z,9.60
2019-03-16T03:22:30.481Z,9.60
2019-03-16T03:24:59.061Z,9.60
2019-03-16T03:27:27.655Z,9.50
2019-03-16T03:29:57.561Z,9.50
2019-03-16T03:32:26.724Z,9.50
2019-03-16T03:34:55.311Z,9.50
2019-03-16T03:37:23.964Z,9.50
2019-03-16T03:39:52.525Z,9.50
2019-03-16T03:42:21.098Z,9.50
2019-03-16T03:44:49.656Z,9.50
2019-03-16T03:47:18.519Z,9.50
2019-03-16T03:49:47.091Z,9.50
2019-03-16T03:52:15.913Z,9.50
2019-03-16T03:54:44.808Z,9.60
2019-03-16T03:57:13.372Z,9.60
2019-03-16T03:59:41.922Z,9.60
2019-03-16T04:02:10.505Z,9.50
2019-03-16T04:04:39.332Z,9.60
2019-03-16T04:07:07.919Z,9.60
2019-03-16T04:09:36.481Z,9.60
2019-03-16T04:12:05.047Z,9.50
2019-03-16T04:14:33.638Z,9.50
2019-03-16T04:17:02.492Z,9.50
2019-03-16T04:19:31.135Z,9.50
2019-03-16T04:21:59.695Z,9.50
2019-03-16T04:24:28.460Z,9.50
2019-03-16T04:26:57.307Z,9.50
2019-03-16T04:29:26.213Z,9.50
2019-03-16T04:31:54.839Z,9.50
2019-03-16T04:34:29.385Z,9.50
2019-03-16T04:36:54.057Z,9.40
2019-03-16T04:39:22.624Z,9.50
2019-03-16T04:41:51.178Z,9.50
2019-03-16T04:44:19.780Z,9.40
2019-03-16T04:46:48.346Z,9.40
2019-03-16T04:49:17.221Z,9.40
2019-03-16T04:51:46.199Z,9.50
2019-03-16T04:54:15.107Z,9.50
2019-03-16T04:56:43.692Z,9.40
2019-03-16T04:59:12.251Z,9.40
2019-03-16T05:01:40.807Z,9.40
2019-03-16T05:04:09.378Z,9.40
2019-03-16T05:06:38.238Z,9.40
2019-03-16T05:09:07.415Z,9.40
2019-03-16T05:11:35.975Z,9.40
2019-03-16T05:14:04.538Z,9.40
2019-03-16T05:16:33.114Z,9.40
2019-03-16T05:19:01.666Z,9.40
2019-03-16T05:21:30.245Z,9.30
2019-03-16T05:23:58.804Z,9.30
2019-03-16T05:26:27.443Z,9.40
2019-03-16T05:28:56.099Z,9.30
2019-03-16T05:31:24.670Z,9.30
2019-03-16T05:33:54.382Z,9.40
2019-03-16T05:36:22.947Z,9.30
2019-03-16T05:38:51.854Z,9.40
2019-03-16T05:41:20.760Z,9.40
2019-03-16T05:43:49.411Z,9.40
2019-03-16T05:46:18.367Z,9.40
2019-03-16T05:48:46.926Z,9.40
2019-03-16T05:51:15.476Z,9.40
2019-03-16T05:53:44.075Z,9.40
2019-03-16T05:56:12.626Z,9.40
2019-03-16T05:58:41.205Z,9.30
2019-03-16T06:01:10.110Z,9.40
2019-03-16T06:03:38.670Z,9.30
2019-03-16T06:06:07.594Z,9.30
2019-03-16T06:08:36.151Z,9.30
2019-03-16T06:11:04.727Z,9.30
2019-03-16T06:13:33.290Z,9.30
2019-03-16T06:16:01.893Z,9.30
2019-03-16T06:18:30.463Z,9.40
2019-03-16T06:20:59.031Z,9.40
2019-03-16T06:23:27.598Z,9.40
2019-03-16T06:25:56.431Z,9.40
2019-03-16T06:28:25.010Z,9.40
2019-03-16T06:30:53.934Z,9.40
2019-03-16T06:33:22.507Z,9.40
2019-03-16T06:35:51.083Z,9.40
2019-03-16T06:38:19.673Z,9.40
2019-03-16T06:40:48.253Z,9.40
2019-03-16T06:43:16.818Z,9.40
2019-03-16T06:45:45.400Z,9.40
2019-03-16T06:48:14.314Z,9.40
2019-03-16T06:50:42.893Z,9.40
2019-03-16T06:53:11.469Z,9.40
2019-03-16T06:55:40.028Z,9.30
2019-03-16T06:58:08.604Z,9.30
2019-03-16T07:00:37.149Z,9.30
2019-03-16T07:03:05.722Z,9.30
2019-03-16T07:05:38.683Z,9.30
2019-03-16T07:08:04.623Z,9.30
2019-03-16T07:10:33.218Z,9.30
2019-03-16T07:13:02.067Z,9.30
2019-03-16T07:15:30.626Z,9.30
2019-03-16T07:17:59.494Z,9.30
2019-03-16T07:20:28.046Z,9.30
2019-03-16T07:22:56.954Z,9.30
2019-03-16T07:25:25.521Z,9.40
2019-03-16T07:27:54.082Z,9.30
2019-03-16T07:30:22.658Z,9.30
2019-03-16T07:32:51.239Z,9.40
2019-03-16T07:35:20.036Z,9.40
2019-03-16T07:37:48.638Z,9.50
2019-03-16T07:40:17.189Z,9.60
2019-03-16T07:42:46.103Z,9.70
2019-03-16T07:45:14.713Z,9.80
2019-03-16T07:47:43.310Z,9.80
2019-03-16T07:50:12.801Z,9.80
2019-03-16T07:52:41.366Z,9.80
2019-03-16T07:55:09.967Z,9.90
2019-03-16T07:57:40.348Z,10.00
2019-03-16T08:00:09.019Z,10.10
2019-03-16T08:02:37.603Z,10.00
2019-03-16T08:05:17.496Z,10.10
2019-03-16T08:07:36.469Z,10.20
2019-03-16T08:10:05.307Z,10.30
2019-03-16T08:12:33.866Z,10.30
2019-03-16T08:15:02.475Z,10.40
2019-03-16T08:17:31.043Z,10.40
2019-03-16T08:19:59.694Z,10.70
2019-03-16T08:22:28.274Z,10.90
2019-03-16T08:24:57.140Z,11.00
2019-03-16T08:27:25.702Z,11.10
2019-03-16T08:29:54.683Z,11.00
2019-03-16T08:32:25.391Z,11.00
2019-03-16T08:34:53.814Z,10.90
2019-03-16T08:37:22.407Z,10.90
2019-03-16T08:39:50.978Z,10.80
2019-03-16T08:42:19.542Z,10.70
2019-03-16T08:44:48.131Z,10.60
2019-03-16T08:47:16.698Z,10.60
2019-03-16T08:49:45.255Z,10.50
2019-03-16T08:52:13.931Z,10.50
2019-03-16T08:54:42.619Z,10.40
2019-03-16T08:57:11.205Z,10.40
2019-03-16T08:59:39.807Z,10.40
2019-03-16T09:02:08.403Z,10.30
2019-03-16T09:04:36.938Z,10.30
2019-03-16T09:07:05.896Z,10.30
2019-03-16T09:09:34.462Z,10.30
2019-03-16T09:12:03.232Z,10.40
2019-03-16T09:14:31.886Z,10.40
2019-03-16T09:17:00.458Z,10.40
2019-03-16T09:19:29.023Z,10.50
2019-03-16T09:21:57.614Z,10.50
2019-03-16T09:24:26.327Z,10.60
2019-03-16T09:26:54.895Z,10.50
2019-03-16T09:29:24.058Z,10.60
2019-03-16T09:31:52.631Z,10.60
2019-03-16T09:34:21.197Z,10.60
2019-03-16T09:36:49.887Z,10.60
2019-03-16T09:39:18.563Z,10.90
2019-03-16T09:41:47.122Z,11.00
2019-03-16T09:44:16.175Z,11.10
2019-03-16T09:46:44.734Z,11.20
2019-03-16T09:49:13.307Z,11.10
2019-03-16T09:51:41.882Z,11.30
2019-03-16T09:54:10.450Z,11.50
2019-03-16T09:56:39.166Z,11.60
2019-03-16T09:59:08.010Z,11.80
2019-03-16T10:01:36.890Z,11.80
2019-03-16T10:04:05.798Z,11.70
2019-03-16T10:06:34.428Z,11.70
2019-03-16T10:09:06.027Z,11.60
2019-03-16T10:11:34.630Z,11.70
2019-03-16T10:14:03.292Z,11.80
2019-03-16T10:16:31.882Z,12.00
2019-03-16T10:19:00.445Z,12.20
2019-03-16T10:21:29.078Z,12.30
2019-03-16T10:23:57.641Z,12.50
2019-03-16T10:26:26.197Z,12.90
2019-03-16T10:28:54.791Z,13.90
2019-03-16T10:31:23.671Z,15.40
2019-03-16T10:33:52.588Z,16.10
2019-03-16T10:36:21.176Z,17.10
2019-03-16T10:38:49.867Z,18.10
2019-03-16T10:41:18.436Z,18.10
2019-03-16T10:43:47.046Z,17.70
2019-03-16T10:46:15.706Z,16.80
2019-03-16T10:48:44.287Z,16.00
2019-03-16T10:51:12.877Z,15.50
2019-03-16T10:53:41.541Z,14.80
2019-03-16T10:56:10.130Z,14.40
2019-03-16T10:58:38.753Z,13.90
2019-03-16T11:01:07.307Z,13.60
2019-03-16T11:03:35.880Z,13.30
2019-03-16T11:06:04.458Z,13.20
2019-03-16T11:08:33.022Z,13.00
2019-03-16T11:11:01.606Z,12.90
2019-03-16T11:13:30.226Z,12.90
2019-03-16T11:15:59.096Z,12.90
2019-03-16T11:18:27.687Z,12.80
2019-03-16T11:20:56.276Z,12.70
2019-03-16T11:23:24.858Z,12.80
2019-03-16T11:25:53.422Z,12.90
2019-03-16T11:28:22.018Z,13.00
2019-03-16T11:30:50.885Z,13.00
2019-03-16T11:33:19.476Z,13.10
2019-03-16T11:35:48.358Z,13.10
2019-03-16T11:38:16.923Z,13.30
2019-03-16T11:40:45.518Z,13.30
2019-03-16T11:43:14.413Z,13.40
2019-03-16T11:45:43.002Z,13.40
2019-03-16T11:48:11.567Z,13.50
2019-03-16T11:50:40.793Z,13.50
2019-03-16T11:53:09.374Z,13.50
2019-03-16T11:55:37.946Z,13.60
2019-03-16T11:58:06.582Z,13.50
2019-03-16T12:00:35.423Z,13.50
2019-03-16T12:03:04.002Z,13.50
2019-03-16T12:05:32.583Z,13.50
2019-03-16T12:08:01.154Z,13.40
2019-03-16T12:10:29.746Z,13.30
2019-03-16T12:12:58.317Z,13.30
2019-03-16T12:15:26.939Z,13.20
2019-03-16T12:17:55.564Z,13.20
2019-03-16T12:20:24.161Z,13.20
2019-03-16T12:22:52.735Z,13.10
2019-03-16T12:25:21.308Z,13.10
2019-03-16T12:27:49.878Z,13.10
2019-03-16T12:30:18.458Z,13.00
2019-03-16T12:32:47.028Z,12.90
2019-03-16T12:35:15.623Z,12.90
2019-03-16T12:37:44.197Z,12.90
2019-03-16T12:40:12.814Z,13.10
2019-03-16T12:42:41.395Z,13.40
2019-03-16T12:45:12.338Z,13.70
2019-03-16T12:47:40.973Z,14.00
2019-03-16T12:50:09.579Z,14.60
2019-03-16T12:52:38.169Z,15.00
2019-03-16T12:55:07.306Z,14.90
2019-03-16T12:57:35.935Z,14.80
2019-03-16T13:00:05.715Z,14.80
2019-03-16T13:02:35.679Z,14.90
2019-03-16T13:05:04.846Z,15.20
2019-03-16T13:07:33.437Z,15.60
2019-03-16T13:10:02.114Z,15.50
2019-03-16T13:12:33.930Z,15.20
2019-03-16T13:15:02.563Z,14.90
2019-03-16T13:17:31.160Z,15.00
2019-03-16T13:19:59.820Z,15.10
2019-03-16T13:22:28.382Z,15.20
2019-03-16T13:24:56.979Z,15.10
2019-03-16T13:27:25.554Z,15.10
2019-03-16T13:29:58.859Z,15.00
2019-03-16T13:32:24.792Z,14.90
2019-03-16T13:34:53.363Z,14.90
2019-03-16T13:37:22.279Z,14.80
2019-03-16T13:39:50.848Z,14.70
2019-03-16T13:42:19.435Z,14.70
2019-03-16T13:44:48.014Z,14.50
2019-03-16T13:47:16.616Z,14.40
2019-03-16T13:49:45.606Z,14.30
2019-03-16T13:52:14.446Z,14.30
2019-03-16T13:54:43.041Z,14.30
2019-03-16T13:57:11.673Z,14.20
2019-03-16T13:59:40.234Z,14.20
2019-03-16T14:02:08.854Z,14.20
2019-03-16T14:04:37.694Z,14.20
2019-03-16T14:07:06.261Z,14.20
2019-03-16T14:09:34.882Z,14.20
2019-03-16T14:12:03.829Z,14.20
2019-03-16T14:14:32.418Z,14.10
2019-03-16T14:17:01.034Z,14.00
2019-03-16T14:19:29.594Z,13.90
2019-03-16T14:21:58.191Z,13.90
2019-03-16T14:24:26.753Z,13.90
2019-03-16T14:26:55.678Z,13.90
2019-03-16T14:29:24.349Z,13.90
2019-03-16T14:31:52.931Z,13.90
2019-03-16T14:34:21.838Z,14.00
2019-03-16T14:36:50.447Z,14.00
2019-03-16T14:39:19.410Z,14.00
2019-03-16T14:41:48.663Z,14.10
2019-03-16T14:44:17.246Z,14.00
2019-03-16T14:46:45.827Z,14.20
2019-03-16T14:49:14.407Z,14.40
2019-03-16T14:51:42.998Z,14.60
2019-03-16T14:54:11.569Z,14.70
2019-03-16T14:56:40.267Z,14.60
2019-03-16T14:59:08.958Z,14.50
2019-03-16T15:01:37.523Z,14.40
2019-03-16T15:04:06.126Z,14.30
2019-03-16T15:06:34.712Z,14.20
2019-03-16T15:09:03.488Z,14.30
2019-03-16T15:11:32.071Z,14.40
2019-03-16T15:14:00.638Z,14.50
2019-03-16T15:16:30.639Z,14.50
2019-03-16T15:18:59.215Z,14.40
2019-03-16T15:21:27.882Z,14.40
2019-03-16T15:23:56.849Z,14.50
2019-03-16T15:26:25.434Z,14.50
2019-03-16T15:28:55.073Z,14.50
2019-03-16T15:31:23.829Z,14.60
2019-03-16T15:33:52.682Z,14.50
2019-03-16T15:36:21.727Z,14.60
2019-03-16T15:38:50.411Z,14.50
2019-03-16T15:41:19.355Z,14.40
2019-03-16T15:43:48.370Z,14.30
2019-03-16T15:46:16.986Z,14.20
2019-03-16T15:48:45.598Z,14.00
2019-03-16T15:51:14.351Z,13.90
2019-03-16T15:53:42.964Z,13.80
2019-03-16T15:56:11.634Z,13.70
2019-03-16T15:58:40.337Z,13.70
2019-03-16T16:01:08.909Z,13.60
2019-03-16T16:03:37.535Z,13.50
2019-03-16T16:06:06.184Z,13.50
2019-03-16T16:08:34.801Z,13.50
2019-03-16T16:11:03.719Z,13.50
2019-03-16T16:13:32.363Z,13.50
2019-03-16T16:16:00.934Z,13.60
2019-03-16T16:18:29.606Z,13.60
2019-03-16T16:20:58.220Z,13.60
2019-03-16T16:23:26.853Z,13.60
2019-03-16T16:25:55.898Z,13.60
2019-03-16T16:28:24.628Z,13.60
2019-03-16T16:30:53.202Z,13.60
2019-03-16T16:33:21.815Z,13.60
2019-03-16T16:35:50.482Z,13.60
2019-03-16T16:38:19.503Z,13.50
2019-03-16T16:40:48.515Z,13.50
2019-03-16T16:43:17.344Z,13.40
2019-03-16T16:45:46.897Z,13.40
2019-03-16T16:48:15.678Z,13.40
2019-03-16T16:50:44.335Z,13.40
2019-03-16T16:53:12.903Z,13.30
2019-03-16T16:55:41.911Z,13.20
2019-03-16T16:58:10.474Z,13.10
2019-03-16T17:00:39.095Z,13.10
2019-03-16T17:03:07.700Z,13.10
2019-03-16T17:05:36.263Z,13.00
2019-03-16T17:08:04.845Z,13.00
2019-03-16T17:10:33.446Z,12.90
2019-03-16T17:13:02.486Z,12.90
2019-03-16T17:15:31.091Z,12.70
2019-03-16T17:17:59.675Z,12.70
2019-03-16T17:20:28.247Z,12.70
2019-03-16T17:22:56.823Z,12.70
2019-03-16T17:25:25.431Z,12.60
2019-03-16T17:27:54.568Z,12.50
2019-03-16T17:30:23.306Z,12.40
2019-03-16T17:32:52.199Z,12.40
2019-03-16T17:35:20.770Z,12.20
2019-03-16T17:37:49.354Z,12.10
2019-03-16T17:40:17.963Z,12.00
2019-03-16T17:42:46.769Z,11.90
2019-03-16T17:45:15.343Z,11.80
2019-03-16T17:47:43.942Z,11.70
2019-03-16T17:50:12.604Z,11.60
2019-03-16T17:52:41.188Z,11.50
2019-03-16T17:55:09.812Z,11.40
2019-03-16T17:57:38.443Z,11.30
2019-03-16T18:00:08.154Z,11.10
2019-03-16T18:02:50.046Z,11.00
2019-03-16T18:05:07.242Z,10.90
2019-03-16T18:07:36.192Z,10.80
2019-03-16T18:10:05.283Z,10.80
2019-03-16T18:12:33.916Z,10.70
2019-03-16T18:15:02.516Z,10.60
2019-03-16T18:17:31.393Z,10.50
2019-03-16T18:20:00.022Z,10.40
2019-03-16T18:22:28.616Z,10.30
2019-03-16T18:24:57.174Z,10.20
2019-03-16T18:27:25.829Z,10.10
2019-03-16T18:29:54.415Z,10.00
2019-03-16T18:32:23.018Z,10.00
2019-03-16T18:34:51.679Z,9.90
2019-03-16T18:37:20.266Z,9.80
2019-03-16T18:39:48.879Z,9.70
2019-03-16T18:42:17.461Z,9.60
2019-03-16T18:44:46.150Z,9.60
2019-03-16T18:47:14.945Z,9.40
2019-03-16T18:49:43.724Z,9.40
2019-03-16T18:52:12.432Z,9.30
2019-03-16T18:54:41.047Z,9.10
2019-03-16T18:57:09.627Z,9.10
2019-03-16T18:59:38.475Z,9.10
2019-03-16T19:02:19.958Z,8.90
2019-03-16T19:04:37.431Z,9.00
2019-03-16T19:07:06.127Z,8.80
2019-03-16T19:09:34.736Z,8.70
2019-03-16T19:12:03.343Z,8.70
2019-03-16T19:14:31.948Z,8.70
2019-03-16T19:17:00.899Z,8.60
2019-03-16T19:19:29.490Z,8.40
2019-03-16T19:21:58.090Z,8.40
2019-03-16T19:24:26.938Z,8.40
2019-03-16T19:26:55.990Z,8.40
2019-03-16T19:29:24.647Z,8.30
2019-03-16T19:31:53.220Z,8.30
2019-03-16T19:34:21.922Z,8.20
2019-03-16T19:36:50.498Z,8.10
2019-03-16T19:39:19.142Z,8.10
2019-03-16T19:41:47.844Z,8.10
2019-03-16T19:44:16.438Z,8.00
2019-03-16T19:46:45.115Z,8.00
2019-03-16T19:49:13.702Z,7.80
2019-03-16T19:51:43.075Z,7.90
2019-03-16T19:54:12.614Z,7.80
2019-03-16T19:56:41.553Z,7.80
2019-03-16T19:59:10.166Z,7.70
2019-03-16T20:01:38.838Z,7.70
2019-03-16T20:04:08.150Z,7.60
2019-03-16T20:06:40.400Z,7.60
2019-03-16T20:09:09.011Z,7.50
2019-03-16T20:11:37.618Z,7.40
2019-03-16T20:14:06.286Z,7.40
2019-03-16T20:16:34.883Z,7.40
2019-03-16T20:19:03.504Z,7.40
2019-03-16T20:21:32.451Z,7.30
2019-03-16T20:24:01.526Z,7.20
2019-03-16T20:26:30.112Z,7.20
2019-03-16T20:28:58.790Z,7.10
2019-03-16T20:31:27.378Z,7.00
2019-03-16T20:33:55.974Z,7.00
2019-03-16T20:36:24.579Z,6.90
2019-03-16T20:38:53.635Z,7.00
2019-03-16T20:41:35.301Z,6.90
2019-03-16T20:43:52.882Z,6.90
2019-03-16T20:46:21.539Z,6.80
2019-03-16T20:48:50.419Z,6.80
2019-03-16T20:51:18.994Z,6.70
2019-03-16T20:53:47.572Z,6.60
2019-03-16T20:56:17.246Z,6.60
2019-03-16T20:58:45.885Z,6.50
2019-03-16T21:01:14.800Z,6.50
2019-03-16T21:03:43.516Z,6.40
2019-03-16T21:06:12.143Z,6.40
2019-03-16T21:08:40.727Z,6.40
2019-03-16T21:11:09.590Z,6.30
2019-03-16T21:13:38.210Z,6.20
2019-03-16T21:16:06.774Z,6.20
2019-03-16T21:18:35.407Z,6.10
2019-03-16T21:21:03.966Z,6.00
2019-03-16T21:23:32.550Z,6.00
2019-03-16T21:26:01.155Z,6.00
2019-03-16T21:28:29.757Z,6.00
2019-03-16T21:30:58.699Z,5.90
2019-03-16T21:33:29.844Z,5.90
2019-03-16T21:35:57.899Z,5.90
2019-03-16T21:38:26.487Z,5.80
2019-03-16T21:40:55.115Z,5.80
2019-03-16T21:43:23.683Z,5.70
2019-03-16T21:45:52.444Z,5.70
2019-03-16T21:48:21.334Z,5.70
2019-03-16T21:50:49.942Z,5.70
2019-03-16T21:53:18.540Z,5.70
2019-03-16T21:55:47.161Z,5.60
2019-03-16T21:58:16.692Z,5.60
2019-03-16T22:00:45.349Z,5.60
2019-03-16T22:03:13.958Z,5.60
2019-03-16T22:05:42.543Z,5.50
2019-03-16T22:08:11.105Z,5.50
2019-03-16T22:10:39.726Z,5.40
2019-03-16T22:13:08.643Z,5.40
2019-03-16T22:15:37.198Z,5.40
2019-03-16T22:18:05.786Z,5.30
2019-03-16T22:20:34.631Z,5.30
2019-03-16T22:23:06.100Z,5.20
2019-03-16T22:25:35.639Z,5.10
2019-03-16T22:28:04.207Z,5.10
2019-03-16T22:30:32.767Z,5.10
2019-03-16T22:33:01.374Z,5.10
2019-03-16T22:35:29.938Z,5.10
2019-03-16T22:37:58.502Z,5.00
2019-03-16T22:40:27.205Z,5.00
2019-03-16T22:42:55.806Z,4.90
2019-03-16T22:45:24.366Z,4.80
2019-03-16T22:47:53.066Z,4.90
2019-03-16T22:50:21.651Z,4.70
2019-03-16T22:52:50.221Z,4.70
2019-03-16T22:55:18.946Z,4.70
2019-03-16T22:57:47.782Z,4.70
